Terminal Aerodrome Forecast
Issued by NWS Sioux Falls, SD

Home | Current Version | Previous Version | Graphics & Text | Print | Product List | Glossary Off
Versions: 1 2 3 4 5 6 7 8 9 10 11 12 13

000
FTUS43 KFSD 180546
TAFHON
TAF
KHON 180546Z 1806/1906 05005KT P6SM BKN200
     FM180900 06005KT P6SM OVC110
     FM181500 09005KT P6SM OVC080
     FM181800 14007KT P6SM OVC070
     FM182100 14007KT 6SM SHRA OVC060
     FM190000 35008KT 5SM SHRA OVC010=

USA.gov is the U.S. government's official web portal to all federal, state and local government web resources and services.